Time;durP1;ratioP1;P1;durP2;ratioP2;P2;SDS_P1;SDS_P2;PMS_P1;PMS_P2;Temp;Humidity;BMP_temperature;BMP_pressure;BME280_temperature;BME280_humidity;BME280_pressure;Samples;Min_cycle;Max_cycle;Signal;HPM_P1;HPM_P2
2022/02/12 01:13:49;;;;;;;20.17;10.68;;;;;;;9.49;100.00;101702.81;5127939;23;20248;-72
2022/02/12 01:16:35;;;;;;;19.33;10.90;;;;;;;9.53;100.00;101704.56;4939385;29;20363;-71
2022/02/12 01:19:21;;;;;;;20.27;10.85;;;;;;;9.84;100.00;101696.75;4939400;29;20059;-71
2022/02/12 02:02:02;;;;;;;20.42;11.93;;;;;;;9.68;100.00;101705.47;5212252;23;20048;-72
2022/02/12 02:04:48;;;;;;;18.80;11.43;;;;;;;9.60;100.00;101720.28;4943489;29;20357;-72
2022/02/12 02:07:34;;;;;;;19.60;11.90;;;;;;;9.70;100.00;101718.53;4957655;29;20083;-71
2022/02/12 02:10:20;;;;;;;16.30;11.32;;;;;;;9.67;100.00;101736.84;4957191;29;20023;-72
2022/02/12 02:13:06;;;;;;;19.30;12.23;;;;;;;9.72;100.00;101748.19;4958213;29;20137;-71
2022/02/12 02:15:52;;;;;;;19.45;12.43;;;;;;;9.62;100.00;101752.53;4956829;29;20031;-72
2022/02/12 02:18:38;;;;;;;18.95;11.93;;;;;;;9.45;100.00;101758.59;4956713;29;20066;-72
2022/02/12 02:21:26;;;;;;;21.98;12.32;;;;;;;9.54;100.00;101758.63;4956940;29;20042;-72
2022/02/12 02:24:17;;;;;;;18.90;11.88;;;;;;;9.39;100.00;101761.19;4944047;29;20042;-71
2022/02/12 02:27:09;;;;;;;23.40;12.43;;;;;;;9.22;100.00;101757.63;4943303;29;20031;-72
2022/02/12 02:29:56;;;;;;;18.58;12.32;;;;;;;9.38;100.00;101748.97;4956575;29;20032;-72
2022/02/12 02:32:43;;;;;;;22.50;12.48;;;;;;;9.41;100.00;101757.69;4943506;29;20034;-72
2022/02/12 02:35:28;;;;;;;20.05;12.55;;;;;;;9.24;100.00;101759.38;4956594;29;20031;-72
2022/02/12 02:38:17;;;;;;;18.80;12.43;;;;;;;9.40;100.00;101752.44;4955506;28;20121;-71
2022/02/12 02:41:02;;;;;;;22.35;12.65;;;;;;;9.05;100.00;101761.91;4957559;29;20046;-73
2022/02/12 02:43:48;;;;;;;19.63;11.82;;;;;;;9.05;100.00;101754.06;4956317;29;20038;-72
2022/02/12 02:46:34;;;;;;;22.27;12.55;;;;;;;9.27;100.00;101759.41;4957079;29;20028;-73
2022/02/12 02:49:20;;;;;;;21.98;12.43;;;;;;;9.25;100.00;101770.72;4943317;29;20461;-72
2022/02/12 02:58:15;;;;;;;22.02;12.48;;;;;;;9.02;100.00;101783.69;4957020;29;20475;-71
2022/02/12 06:50:02;;;;;;;24.65;15.45;;;;;;;7.19;100.00;102174.56;5989743;23;20133;31
2022/02/12 06:52:48;;;;;;;27.20;17.20;;;;;;;7.42;100.00;102183.66;4847552;29;20057;-72
2022/02/12 06:55:34;;;;;;;26.50;15.80;;;;;;;7.61;100.00;102184.06;4850491;29;20029;-72
2022/02/12 06:58:20;;;;;;;27.60;17.02;;;;;;;7.59;100.00;102192.72;4867814;29;20037;-73
2022/02/12 07:01:06;;;;;;;26.65;16.83;;;;;;;7.69;100.00;102197.22;4867462;29;20073;-72
2022/02/12 07:03:52;;;;;;;23.63;15.85;;;;;;;7.91;100.00;102196.72;4881155;29;20454;-72
2022/02/12 07:06:38;;;;;;;29.70;17.00;;;;;;;7.89;100.00;102206.28;4880186;29;20116;-72
2022/02/12 07:09:23;;;;;;;27.05;16.23;;;;;;;7.68;100.00;102205.91;4881080;29;20032;-72
2022/02/12 07:41:47;;;;;;;23.90;17.25;;;;;;;8.97;100.00;102239.31;5830173;23;20418;-72
2022/02/12 07:44:34;;;;;;;25.63;17.42;;;;;;;9.02;100.00;102243.75;4935807;29;20114;-72
2022/02/12 07:47:20;;;;;;;24.30;16.30;;;;;;;9.06;100.00;102256.00;4936273;29;20034;-72
2022/02/12 07:50:08;;;;;;;25.33;16.63;;;;;;;9.18;100.00;102257.88;4936489;29;20460;-72
2022/02/12 07:52:53;;;;;;;24.48;16.30;;;;;;;9.38;100.00;102259.00;4936084;29;20373;-72
2022/02/12 07:55:40;;;;;;;21.48;15.90;;;;;;;9.32;100.00;102262.44;4936125;29;20094;-72
2022/02/12 07:58:26;;;;;;;25.10;16.35;;;;;;;9.50;100.00;102275.75;4935895;29;20035;-72
2022/02/12 08:01:15;;;;;;;22.95;15.48;;;;;;;9.65;100.00;102277.66;4935785;29;20024;-73
2022/02/12 08:13:41;;;;;;;18.52;14.38;;;;;;;10.03;100.00;102320.81;4860537;29;20151;-71
2022/02/12 08:16:27;;;;;;;21.58;15.10;;;;;;;10.74;100.00;102340.72;4936034;29;20046;-72
2022/02/12 08:19:13;;;;;;;19.98;14.82;;;;;;;11.08;100.00;102347.03;4936426;29;20063;-72
2022/02/12 08:21:59;;;;;;;22.92;14.85;;;;;;;11.39;100.00;102335.88;4936729;29;20100;-72
2022/02/12 08:24:46;;;;;;;20.13;13.90;;;;;;;11.28;100.00;102351.56;4922855;29;20150;-72
2022/02/12 08:27:31;;;;;;;20.33;14.82;;;;;;;10.94;100.00;102335.59;4936670;29;20028;-71
2022/02/12 08:30:17;;;;;;;22.02;14.10;;;;;;;10.91;100.00;102339.09;4936986;29;20043;-72
2022/02/12 08:33:03;;;;;;;20.08;14.90;;;;;;;10.61;100.00;102351.94;4937260;29;20051;-72
2022/02/12 08:35:49;;;;;;;20.42;13.98;;;;;;;10.57;100.00;102352.78;4923515;29;20094;-72
2022/02/12 08:38:35;;;;;;;23.60;15.75;;;;;;;11.04;100.00;102350.50;4940363;29;20031;-72
2022/02/12 12:36:10;;;;;;;21.55;12.90;;;;;;;10.81;100.00;102470.97;5148873;23;20056;-72
2022/02/12 12:38:56;;;;;;;21.73;12.15;;;;;;;10.83;100.00;102477.13;4940527;29;20126;-71
2022/02/12 12:41:43;;;;;;;17.48;11.30;;;;;;;11.01;100.00;102477.28;4940067;29;20042;-72
2022/02/12 12:44:28;;;;;;;14.63;10.07;;;;;;;11.04;98.52;102482.56;4940248;29;20039;-72
2022/02/12 12:47:14;;;;;;;17.13;10.82;;;;;;;10.87;99.93;102478.91;4926917;29;20038;-73
2022/02/12 12:50:03;;;;;;;14.07;9.57;;;;;;;10.88;99.71;102475.41;4939782;29;20025;-73
2022/02/12 12:53:00;;;;;;;13.23;8.50;;;;;;;10.69;99.86;102475.22;4940030;29;20031;-72
2022/02/12 12:55:46;;;;;;;13.43;7.78;;;;;;;10.73;100.00;102480.50;4927880;29;20034;-72
2022/02/12 12:58:32;;;;;;;12.85;8.57;;;;;;;10.80;100.00;102482.31;4939689;29;20409;-73
2022/02/12 13:01:18;;;;;;;10.85;7.00;;;;;;;10.55;100.00;102487.28;4939454;29;20027;-72
2022/02/12 13:04:05;;;;;;;15.07;7.53;;;;;;;10.68;99.81;102482.22;4927012;29;20027;-72
2022/02/12 13:06:53;;;;;;;13.35;7.85;;;;;;;10.82;99.61;102483.25;4939873;29;20103;-72
2022/02/12 13:09:42;;;;;;;21.08;8.98;;;;;;;10.90;98.36;102497.31;4939826;29;20032;-74
2022/02/12 13:12:32;;;;;;;12.70;8.00;;;;;;;11.50;94.57;102499.53;4939391;29;20055;-72
2022/02/12 13:15:24;;;;;;;9.32;6.82;;;;;;;10.96;96.21;102501.69;4939369;29;20031;-72
2022/02/12 13:18:11;;;;;;;8.25;6.07;;;;;;;10.74;97.86;102505.00;4927028;29;20046;-72
2022/02/12 13:21:11;;;;;;;11.02;6.10;;;;;;;10.53;99.78;102502.16;4939798;29;20028;-72
2022/02/12 13:24:04;;;;;;;8.73;6.40;;;;;;;10.66;98.98;102510.16;4926439;29;20428;-71
2022/02/12 13:26:53;;;;;;;15.40;10.60;;;;;;;10.83;98.91;102516.44;4927081;29;20027;-72
2022/02/12 13:29:39;;;;;;;11.13;7.30;;;;;;;10.82;97.13;102522.56;4939305;29;20491;-71
2022/02/12 13:32:36;;;;;;;9.95;6.60;;;;;;;10.97;96.73;102527.94;4939368;29;20047;-72
2022/02/12 13:35:23;;;;;;;9.35;6.75;;;;;;;10.86;96.21;102529.59;4925535;29;20127;-72
2022/02/12 13:38:11;;;;;;;12.98;6.82;;;;;;;11.16;94.97;102522.00;4939411;29;20102;-73
2022/02/12 13:40:56;;;;;;;9.77;6.60;;;;;;;11.04;92.14;102529.75;4939251;29;20118;-72
2022/02/12 13:43:47;;;;;;;11.32;7.55;;;;;;;10.97;93.87;102533.19;4939042;29;20471;-72
2022/02/12 13:46:38;;;;;;;10.02;6.55;;;;;;;10.94;93.14;102535.81;4939175;29;20038;-72
2022/02/12 13:49:25;;;;;;;9.65;6.45;;;;;;;11.31;92.04;102542.25;4938983;29;20031;-71
2022/02/12 13:52:11;;;;;;;9.80;6.53;;;;;;;11.49;90.87;102539.78;4939126;29;20038;-71
2022/02/12 13:55:06;;;;;;;11.52;6.40;;;;;;;11.48;89.35;102551.13;4926348;29;20027;-73
2022/02/12 13:57:52;;;;;;;13.48;7.40;;;;;;;11.71;87.78;102546.97;4938842;29;20027;-72
2022/02/12 17:26:03;;;;;;;14.73;8.52;;;;;;;8.60;75.19;102823.16;4881475;29;20423;-71
2022/02/12 17:28:50;;;;;;;30.77;16.73;;;;;;;8.75;76.13;102828.75;4882969;29;20072;-71
2022/02/12 17:31:37;;;;;;;25.42;12.70;;;;;;;8.71;75.87;102826.91;4882487;29;20061;-72
2022/02/12 17:34:22;;;;;;;19.15;11.32;;;;;;;8.76;76.29;102830.50;4869866;29;20044;-72
2022/02/12 17:37:08;;;;;;;16.02;7.90;;;;;;;8.63;76.88;102833.69;4882103;29;20025;-71
2022/02/12 17:39:54;;;;;;;15.55;8.43;;;;;;;8.59;76.91;102838.78;4882283;29;20356;-72
2022/02/12 17:42:43;;;;;;;14.52;7.45;;;;;;;8.62;76.66;102846.72;4882194;29;20029;-73
2022/02/12 17:45:29;;;;;;;13.82;7.60;;;;;;;8.59;76.70;102833.56;4882832;29;20033;-71
2022/02/12 17:48:15;;;;;;;26.33;13.13;;;;;;;8.68;76.62;102842.50;4882019;29;20455;-71
2022/02/12 17:51:01;;;;;;;17.73;10.82;;;;;;;8.69;76.25;102846.03;4882437;29;20044;-72
2022/02/12 17:53:47;;;;;;;13.13;7.80;;;;;;;8.70;74.73;102847.78;4881929;29;20486;-72
2022/02/12 17:56:33;;;;;;;17.85;9.95;;;;;;;8.70;73.21;102839.94;4881815;29;20128;-71
2022/02/12 17:59:18;;;;;;;19.40;11.20;;;;;;;8.82;72.95;102853.31;4882236;29;20411;-71
2022/02/12 18:02:04;;;;;;;16.70;9.73;;;;;;;8.59;71.80;102838.78;4883931;29;20148;-73
2022/02/12 21:19:09;;;;;;;20.67;9.52;;;;;;;7.05;99.19;103029.13;5495242;23;20429;-72
2022/02/12 21:21:56;;;;;;;21.92;9.15;;;;;;;7.13;100.00;103030.25;4927077;29;20115;-73
2022/02/12 21:24:42;;;;;;;15.13;8.38;;;;;;;6.49;100.00;103030.56;4939185;29;20027;-72
2022/02/12 21:27:28;;;;;;;21.45;9.55;;;;;;;6.60;100.00;103031.84;4940950;29;20028;-72
2022/02/12 21:30:16;;;;;;;20.70;9.38;;;;;;;6.74;100.00;103034.09;4939022;29;20043;-72
2022/02/12 21:33:02;;;;;;;22.50;8.82;;;;;;;6.37;100.00;103027.53;4939218;29;20032;-71
2022/02/12 21:35:48;;;;;;;16.52;8.50;;;;;;;6.50;100.00;103025.44;4938843;29;20024;-72
2022/02/12 21:38:33;;;;;;;18.25;10.50;;;;;;;6.48;100.00;103029.72;4926689;29;20114;-71
2022/02/12 21:41:19;;;;;;;16.88;11.60;;;;;;;6.26;100.00;103018.47;4925833;29;20024;-71
2022/02/12 21:44:06;;;;;;;16.67;10.00;;;;;;;6.03;100.00;103021.94;4925600;29;20039;-72
2022/02/12 21:46:52;;;;;;;17.90;9.23;;;;;;;6.39;100.00;103026.75;4938780;29;20042;-71
2022/02/12 21:49:38;;;;;;;16.42;9.55;;;;;;;6.12;100.00;103030.06;4926328;29;20035;-71
2022/02/12 21:52:23;;;;;;;17.40;10.55;;;;;;;6.06;100.00;103025.53;4938886;29;20032;-72
2022/02/12 21:55:09;;;;;;;19.55;10.10;;;;;;;5.88;100.00;103024.84;4924947;29;20118;-72
2022/02/12 21:57:55;;;;;;;18.80;10.48;;;;;;;5.64;100.00;103043.75;4938365;29;20457;-70
2022/02/12 22:00:41;;;;;;;20.05;11.10;;;;;;;6.11;100.00;103043.91;4926093;29;20039;-71
2022/02/12 22:03:27;;;;;;;23.33;11.80;;;;;;;6.00;100.00;103053.03;4938778;29;20031;-72
2022/02/12 22:06:12;;;;;;;17.10;10.20;;;;;;;5.87;100.00;103053.41;4926010;29;20023;-71
2022/02/12 22:08:58;;;;;;;19.00;11.57;;;;;;;5.95;100.00;103057.19;4938927;29;20059;-71
2022/02/12 22:11:45;;;;;;;20.98;11.80;;;;;;;5.95;100.00;103049.38;4938387;29;20461;-71
2022/02/12 22:14:31;;;;;;;19.05;11.75;;;;;;;5.69;100.00;103063.03;4937658;29;20035;-71
2022/02/12 22:17:17;;;;;;;23.45;12.45;;;;;;;5.62;100.00;103064.50;4938272;29;20027;-72
